Time;durP1;ratioP1;P1;durP2;ratioP2;P2;SDS_P1;SDS_P2;PMS_P1;PMS_P2;Temp;Humidity;BMP_temperature;BMP_pressure;BME280_temperature;BME280_humidity;BME280_pressure;Samples;Min_cycle;Max_cycle;Signal;HPM_P1;HPM_P2
2024/01/20 00:02:03;;;;;;;7.60;5.00;;;;;;;-5.19;100.00;98489.25;1225263;75;2930846;-66
2024/01/20 00:04:38;;;;;;;9.85;5.50;;;;;;;-5.14;100.00;98488.97;1225054;75;2914794;-67
2024/01/20 00:07:11;;;;;;;6.60;4.60;;;;;;;-5.10;100.00;98501.63;1224199;75;2923323;-65
2024/01/20 00:09:44;;;;;;;6.75;4.35;;;;;;;-5.12;100.00;98496.66;1225052;75;2921858;-64
2024/01/20 00:12:17;;;;;;;5.95;3.45;;;;;;;-5.20;100.00;98502.94;1225065;75;2914708;-66
2024/01/20 00:14:50;;;;;;;4.30;2.90;;;;;;;-5.19;100.00;98505.28;1225565;75;2916449;-65
2024/01/20 00:17:22;;;;;;;5.05;3.20;;;;;;;-5.23;100.00;98504.41;1224357;67;2939251;-65
2024/01/20 00:19:58;;;;;;;4.50;3.00;;;;;;;-5.33;100.00;98512.97;1224823;75;2917996;-62
2024/01/20 00:22:31;;;;;;;5.80;3.60;;;;;;;-5.49;100.00;98507.66;1225328;75;2916234;-65
2024/01/20 00:25:03;;;;;;;4.55;3.25;;;;;;;-5.39;100.00;98525.03;1225270;75;2914688;-66
2024/01/20 00:27:36;;;;;;;4.45;3.30;;;;;;;-5.42;100.00;98523.84;1225496;75;2925686;-66
2024/01/20 00:30:10;;;;;;;5.30;2.90;;;;;;;-5.46;100.00;98535.56;1224867;75;2913292;-66
2024/01/20 00:32:43;;;;;;;4.85;3.50;;;;;;;-5.63;100.00;98539.34;1224889;75;2923720;-64
2024/01/20 00:35:19;;;;;;;4.30;2.80;;;;;;;-5.49;100.00;98549.59;1225443;75;2911347;-65
2024/01/20 00:37:53;;;;;;;6.05;3.85;;;;;;;-5.58;100.00;98539.09;1225553;75;2921966;-68
2024/01/20 00:40:26;;;;;;;4.00;2.80;;;;;;;-5.50;100.00;98540.06;1224866;75;2915279;-68
2024/01/20 00:42:58;;;;;;;4.35;2.90;;;;;;;-5.50;100.00;98543.47;1224784;75;2919494;-64
2024/01/20 00:45:31;;;;;;;3.25;2.45;;;;;;;-5.51;100.00;98549.16;1225235;75;2920886;-66
2024/01/20 00:48:04;;;;;;;3.25;2.20;;;;;;;-5.49;100.00;98547.69;1224932;75;2917964;-66
2024/01/20 00:50:39;;;;;;;2.95;2.25;;;;;;;-5.51;100.00;98547.25;1225675;75;2918177;-66
2024/01/20 00:53:12;;;;;;;4.35;2.50;;;;;;;-5.59;100.00;98546.31;1225327;75;2917078;-67
2024/01/20 00:55:45;;;;;;;3.30;2.40;;;;;;;-5.74;100.00;98547.13;1225339;75;2913927;-67
2024/01/20 00:58:18;;;;;;;3.70;2.50;;;;;;;-5.89;100.00;98545.22;1225180;75;2914806;-65
2024/01/20 01:00:51;;;;;;;4.20;3.05;;;;;;;-5.93;100.00;98549.72;1225836;75;2923919;-68
2024/01/20 01:03:24;;;;;;;3.90;2.85;;;;;;;-5.88;100.00;98555.53;1225451;75;2922147;-67
2024/01/20 01:05:59;;;;;;;4.60;3.10;;;;;;;-5.90;100.00;98559.69;1225519;75;2917635;-66
2024/01/20 01:08:32;;;;;;;5.10;3.50;;;;;;;-5.90;100.00;98557.78;1224915;75;2918783;-66
2024/01/20 01:11:05;;;;;;;5.00;3.30;;;;;;;-6.09;100.00;98555.81;1225487;75;2918087;-64
2024/01/20 01:13:39;;;;;;;5.25;3.60;;;;;;;-6.13;100.00;98554.16;1225830;75;2939629;-65
2024/01/20 01:16:13;;;;;;;5.55;4.10;;;;;;;-6.26;100.00;98550.81;1225824;75;2920062;-68
2024/01/20 01:18:46;;;;;;;8.30;5.70;;;;;;;-6.15;100.00;98561.75;1225247;75;2913422;-64
2024/01/20 01:21:21;;;;;;;7.90;4.85;;;;;;;-6.01;100.00;98562.13;1224768;75;2922405;-64
2024/01/20 01:23:54;;;;;;;7.85;5.20;;;;;;;-6.23;100.00;98561.56;1224937;75;2935197;-68
2024/01/20 01:26:27;;;;;;;6.30;4.55;;;;;;;-6.01;100.00;98570.88;1225407;75;2917489;-65
2024/01/20 01:29:00;;;;;;;5.35;3.90;;;;;;;-6.01;100.00;98570.88;1225709;75;2914602;-66
2024/01/20 01:31:33;;;;;;;4.85;3.50;;;;;;;-6.23;100.00;98566.09;1225317;75;2914377;-65
2024/01/20 01:34:05;;;;;;;5.35;3.65;;;;;;;-6.18;100.00;98565.09;1225314;75;2918734;-65
2024/01/20 01:36:41;;;;;;;4.10;3.55;;;;;;;-6.27;100.00;98554.59;1225243;75;2922451;-67
2024/01/20 01:39:15;;;;;;;6.80;4.60;;;;;;;-6.26;100.00;98564.91;1225662;75;2925583;-67
2024/01/20 01:41:48;;;;;;;6.05;4.00;;;;;;;-6.24;100.00;98568.00;1225487;75;2915006;-67
2024/01/20 01:44:21;;;;;;;7.55;4.35;;;;;;;-6.42;100.00;98566.78;1225866;75;2919611;-67
2024/01/20 01:46:54;;;;;;;6.05;3.95;;;;;;;-6.23;100.00;98576.75;1225591;75;2921787;-65
2024/01/20 01:49:27;;;;;;;5.35;3.80;;;;;;;-6.38;100.00;98569.53;1226042;75;2914213;-66
2024/01/20 01:52:02;;;;;;;9.65;5.70;;;;;;;-6.37;100.00;98569.19;1225913;75;2911827;-66
2024/01/20 01:54:35;;;;;;;11.00;6.00;;;;;;;-6.09;100.00;98566.47;1225386;75;2918854;-64
2024/01/20 01:57:10;;;;;;;8.30;5.90;;;;;;;-5.98;100.00;98572.09;1223942;75;2921935;-65
2024/01/20 01:59:45;;;;;;;8.15;5.40;;;;;;;-5.95;100.00;98562.63;1225214;75;2925032;-66
2024/01/20 02:02:18;;;;;;;8.20;5.40;;;;;;;-6.03;100.00;98570.44;1225712;75;2914136;-65
2024/01/20 02:04:51;;;;;;;7.70;5.10;;;;;;;-6.29;100.00;98572.81;1224815;75;2917966;-66
2024/01/20 02:07:26;;;;;;;8.40;4.70;;;;;;;-6.19;100.00;98579.53;1224987;75;2916147;-65
2024/01/20 02:09:59;;;;;;;7.75;4.75;;;;;;;-6.38;100.00;98577.53;1225594;75;2914608;-66
2024/01/20 02:12:33;;;;;;;7.35;4.40;;;;;;;-6.29;100.00;98580.81;1225270;75;2923272;-67
2024/01/20 02:15:07;;;;;;;6.00;3.90;;;;;;;-6.29;100.00;98568.25;1225242;75;2916237;-64
2024/01/20 02:17:53;;;;;;;5.80;3.90;;;;;;;-6.31;100.00;98575.81;1224623;75;2913578;-66
2024/01/20 02:20:28;;;;;;;6.30;3.85;;;;;;;-6.36;100.00;98575.28;1223794;75;2911288;-64
2024/01/20 02:23:03;;;;;;;7.00;4.35;;;;;;;-6.32;100.00;98573.50;1225736;75;2917996;-65
2024/01/20 02:25:36;;;;;;;5.25;3.30;;;;;;;-6.35;100.00;98579.50;1226011;75;2915481;-64
2024/01/20 02:28:09;;;;;;;7.20;3.80;;;;;;;-6.55;100.00;98578.59;1225684;75;2916565;-66
2024/01/20 02:30:44;;;;;;;5.20;3.80;;;;;;;-6.38;100.00;98574.84;1225115;75;2926386;-65
2024/01/20 02:33:17;;;;;;;4.85;3.45;;;;;;;-6.50;100.00;98573.78;1224728;75;2930681;-67
2024/01/20 02:35:50;;;;;;;5.80;4.05;;;;;;;-6.63;100.00;98579.50;1225664;75;2918223;-64
2024/01/20 02:38:25;;;;;;;7.75;4.20;;;;;;;-6.70;100.00;98585.41;1225884;75;2912981;-66
2024/01/20 02:40:58;;;;;;;7.30;4.40;;;;;;;-6.56;100.00;98585.03;1225968;75;2920644;-66
2024/01/20 02:43:31;;;;;;;5.80;4.10;;;;;;;-6.63;100.00;98596.25;1224830;75;2920701;-67
2024/01/20 02:46:04;;;;;;;6.00;4.45;;;;;;;-6.68;100.00;98588.50;1223992;75;2914851;-64
2024/01/20 02:48:37;;;;;;;4.80;3.40;;;;;;;-6.62;100.00;98597.81;1225881;75;2911654;-65
2024/01/20 02:51:09;;;;;;;4.05;3.30;;;;;;;-6.62;100.00;98597.03;1224988;75;2919187;-64
2024/01/20 02:53:45;;;;;;;4.70;3.35;;;;;;;-6.65;100.00;98596.59;1225087;75;2923942;-65
2024/01/20 02:56:18;;;;;;;4.10;3.05;;;;;;;-6.72;100.00;98601.72;1224402;75;2920596;-65
2024/01/20 02:58:50;;;;;;;4.05;2.95;;;;;;;-6.90;100.00;98606.53;1225492;75;2916408;-65
2024/01/20 03:01:23;;;;;;;5.10;3.40;;;;;;;-6.88;100.00;98611.50;1224654;75;2914648;-65
2024/01/20 03:03:56;;;;;;;6.95;4.20;;;;;;;-6.89;100.00;98616.06;1225737;75;2918292;-64
2024/01/20 03:06:29;;;;;;;4.30;3.30;;;;;;;-6.86;100.00;98606.63;1225727;75;2913251;-64
2024/01/20 03:09:04;;;;;;;4.75;3.50;;;;;;;-6.93;100.00;98609.84;1224718;75;2929171;-64
2024/01/20 03:11:38;;;;;;;4.80;3.75;;;;;;;-6.92;100.00;98605.31;1224284;75;2914975;-63
2024/01/20 03:14:10;;;;;;;5.05;3.45;;;;;;;-6.83;100.00;98621.16;1223993;75;2915711;-66
2024/01/20 03:16:44;;;;;;;3.35;2.65;;;;;;;-6.82;100.00;98623.50;1222792;75;2976286;-66
2024/01/20 03:19:17;;;;;;;3.55;2.40;;;;;;;-6.90;100.00;98619.84;1225429;75;2912972;-64
2024/01/20 03:21:49;;;;;;;3.25;2.40;;;;;;;-6.91;100.00;98610.28;1225093;75;2919350;-66
2024/01/20 03:24:26;;;;;;;3.40;2.60;;;;;;;-7.07;100.00;98615.53;1225164;75;2921503;-64
2024/01/20 03:26:58;;;;;;;3.05;2.40;;;;;;;-6.96;100.00;98610.53;1225515;75;2913099;-66
2024/01/20 03:29:31;;;;;;;3.55;2.60;;;;;;;-7.04;100.00;98610.69;1225001;75;2920829;-65
2024/01/20 03:32:04;;;;;;;3.05;2.20;;;;;;;-7.02;100.00;98619.06;1225131;75;2920110;-65
2024/01/20 03:34:37;;;;;;;2.65;2.30;;;;;;;-7.12;100.00;98617.66;1225733;75;2918442;-67
2024/01/20 03:37:09;;;;;;;4.15;3.10;;;;;;;-7.07;100.00;98620.06;1225032;75;2915330;-65
2024/01/20 03:39:45;;;;;;;4.15;2.60;;;;;;;-7.10;100.00;98623.41;1225029;75;2917842;-66
2024/01/20 03:42:18;;;;;;;3.70;3.00;;;;;;;-7.14;100.00;98630.53;1225502;75;2919609;-67
2024/01/20 03:44:51;;;;;;;5.70;3.90;;;;;;;-7.19;100.00;98628.06;1225128;75;2917549;-63
2024/01/20 03:47:24;;;;;;;5.30;3.25;;;;;;;-7.11;100.00;98630.63;1224886;75;2923315;-64
2024/01/20 03:49:57;;;;;;;4.95;3.75;;;;;;;-7.21;100.00;98630.31;1224957;75;2918510;-62
2024/01/20 03:52:30;;;;;;;4.40;3.35;;;;;;;-7.12;100.00;98637.06;1224860;75;2934877;-67
2024/01/20 03:55:05;;;;;;;4.05;3.05;;;;;;;-7.13;100.00;98629.41;1225730;75;2917541;-65
2024/01/20 03:57:38;;;;;;;3.95;2.80;;;;;;;-7.30;100.00;98633.06;1225789;75;2916298;-64
2024/01/20 04:00:13;;;;;;;3.90;2.65;;;;;;;-7.23;100.00;98635.97;1226016;75;2918616;-64
2024/01/20 04:02:46;;;;;;;4.55;3.20;;;;;;;-7.20;100.00;98642.50;1224462;75;2921268;-64
2024/01/20 04:05:19;;;;;;;3.70;2.90;;;;;;;-7.34;100.00;98642.81;1224889;75;2912034;-65
2024/01/20 04:07:52;;;;;;;4.20;2.70;;;;;;;-7.29;100.00;98638.06;1225643;75;2919077;-65
2024/01/20 04:10:27;;;;;;;3.80;2.60;;;;;;;-7.29;100.00;98642.59;1224548;75;2917854;-64
2024/01/20 04:13:00;;;;;;;3.65;2.60;;;;;;;-7.28;100.00;98636.19;1225489;75;2918751;-66
2024/01/20 04:15:33;;;;;;;3.20;2.30;;;;;;;-7.35;100.00;98643.94;1224786;75;2919160;-64
2024/01/20 04:18:06;;;;;;;4.55;2.65;;;;;;;-7.40;100.00;98647.59;1225456;75;2923691;-63
2024/01/20 04:20:39;;;;;;;3.70;2.80;;;;;;;-7.43;100.00;98634.97;1225363;75;2913311;-64
2024/01/20 04:23:12;;;;;;;3.25;2.35;;;;;;;-7.34;100.00;98643.59;1225309;75;2914177;-63
2024/01/20 04:25:47;;;;;;;4.00;2.70;;;;;;;-7.41;100.00;98640.69;1225003;75;2923030;-65
2024/01/20 04:28:20;;;;;;;3.85;2.60;;;;;;;-7.37;100.00;98654.91;1225490;75;2919782;-67
2024/01/20 04:30:53;;;;;;;4.45;2.80;;;;;;;-7.34;100.00;98645.47;1225903;75;2920305;-65
2024/01/20 04:33:26;;;;;;;3.40;2.45;;;;;;;-7.36;100.00;98651.16;1225946;75;2912767;-65
2024/01/20 04:35:59;;;;;;;3.60;2.65;;;;;;;-7.35;100.00;98657.22;1224957;75;2929892;-64
2024/01/20 04:38:32;;;;;;;5.25;2.80;;;;;;;-7.37;100.00;98664.75;1224904;75;2923745;-64
2024/01/20 04:41:07;;;;;;;3.95;2.85;;;;;;;-7.37;100.00;98664.75;1223233;75;3008190;-63
2024/01/20 04:43:40;;;;;;;3.20;2.30;;;;;;;-7.38;100.00;98671.22;1224906;75;2921662;-64
2024/01/20 04:46:13;;;;;;;3.40;2.25;;;;;;;-7.49;100.00;98654.88;1225520;75;2917848;-66
2024/01/20 04:48:46;;;;;;;6.85;2.80;;;;;;;-7.56;100.00;98659.97;1225294;75;2920616;-64
2024/01/20 04:51:19;;;;;;;4.85;3.15;;;;;;;-7.47;100.00;98659.88;1225102;75;2920052;-65
2024/01/20 04:53:51;;;;;;;3.65;2.30;;;;;;;-7.53;100.00;98657.44;1225788;75;2921813;-65
2024/01/20 04:56:27;;;;;;;4.00;3.00;;;;;;;-7.57;100.00;98671.72;1225211;75;2916765;-65
2024/01/20 04:59:00;;;;;;;4.10;3.10;;;;;;;-7.54;100.00;98676.38;1225143;75;2915691;-65
2024/01/20 05:01:32;;;;;;;5.40;3.20;;;;;;;-7.53;100.00;98677.91;1225932;75;2919083;-65
2024/01/20 05:04:05;;;;;;;4.30;2.70;;;;;;;-7.55;100.00;98680.13;1225430;75;2902910;-64
2024/01/20 05:06:38;;;;;;;3.60;2.50;;;;;;;-7.53;100.00;98677.91;1224113;75;2915794;-66
2024/01/20 05:09:11;;;;;;;2.70;2.20;;;;;;;-7.56;100.00;98682.03;1225677;75;2921319;-64
2024/01/20 05:11:46;;;;;;;4.45;2.60;;;;;;;-7.76;100.00;98688.97;1225353;75;2943269;-64
2024/01/20 05:14:19;;;;;;;4.10;3.10;;;;;;;-7.68;100.00;98694.53;1225212;75;2911005;-66
2024/01/20 05:16:52;;;;;;;3.50;2.50;;;;;;;-7.62;100.00;98699.31;1225110;75;2921329;-64
2024/01/20 05:19:25;;;;;;;3.10;2.30;;;;;;;-7.69;100.00;98703.63;1224834;75;2918379;-64
2024/01/20 05:21:57;;;;;;;3.25;2.25;;;;;;;-7.75;100.00;98708.34;1225340;75;2919209;-64
2024/01/20 05:24:30;;;;;;;4.00;2.80;;;;;;;-7.84;100.00;98719.06;1225468;75;2915664;-64
2024/01/20 05:27:07;;;;;;;5.15;3.20;;;;;;;-7.82;100.00;98716.84;1224963;75;2915419;-66
2024/01/20 05:29:39;;;;;;;4.40;3.00;;;;;;;-7.69;100.00;98722.22;1225315;75;2912273;-63
2024/01/20 05:32:12;;;;;;;5.80;3.10;;;;;;;-7.69;100.00;98717.69;1225463;75;2920596;-67
2024/01/20 05:34:46;;;;;;;6.15;3.80;;;;;;;-7.80;100.00;98724.50;1224675;75;2918626;-65
2024/01/20 05:37:19;;;;;;;6.00;4.15;;;;;;;-7.75;100.00;98726.94;1225180;75;2916288;-65
2024/01/20 05:39:51;;;;;;;3.80;2.90;;;;;;;-7.72;100.00;98739.56;1224513;75;2925116;-65
2024/01/20 05:42:27;;;;;;;5.00;3.30;;;;;;;-7.73;100.00;98732.72;1225559;75;2923824;-65
2024/01/20 05:45:00;;;;;;;5.70;3.00;;;;;;;-7.70;100.00;98732.06;1222457;75;2968888;-65
2024/01/20 05:47:33;;;;;;;3.90;2.85;;;;;;;-7.69;100.00;98744.25;1225359;75;2930269;-64
2024/01/20 05:50:06;;;;;;;4.00;2.45;;;;;;;-7.74;100.00;98744.47;1224130;75;2916437;-65
2024/01/20 05:52:39;;;;;;;4.25;3.05;;;;;;;-7.89;100.00;98753.03;1225737;75;2913950;-65
2024/01/20 05:55:12;;;;;;;5.10;2.75;;;;;;;-7.92;100.00;98762.44;1225582;75;2925179;-65
2024/01/20 05:57:47;;;;;;;4.20;2.75;;;;;;;-7.92;100.00;98768.50;1225405;75;2907272;-66
2024/01/20 06:00:22;;;;;;;3.20;2.45;;;;;;;-7.91;100.00;98769.31;1224132;75;2924314;-65
2024/01/20 06:02:55;;;;;;;3.25;2.45;;;;;;;-7.88;100.00;98781.19;1224834;75;2920428;-65
2024/01/20 06:05:28;;;;;;;4.35;2.65;;;;;;;-7.96;100.00;98783.56;1225570;75;2914139;-65
2024/01/20 06:08:01;;;;;;;3.55;2.50;;;;;;;-7.85;100.00;98791.91;1225405;75;2921980;-65
2024/01/20 06:10:33;;;;;;;5.25;2.95;;;;;;;-7.84;100.00;98788.19;1224043;75;2954129;-66
2024/01/20 06:13:09;;;;;;;3.45;2.60;;;;;;;-7.84;100.00;98790.84;1225862;75;2917704;-65
2024/01/20 06:15:42;;;;;;;4.65;3.00;;;;;;;-7.86;100.00;98795.69;1224913;75;2915718;-65
2024/01/20 06:18:15;;;;;;;3.35;2.60;;;;;;;-7.87;100.00;98802.09;1225452;75;2921344;-65
2024/01/20 06:20:48;;;;;;;4.85;2.75;;;;;;;-7.90;100.00;98805.41;1225371;75;2916969;-64
2024/01/20 06:23:21;;;;;;;5.10;2.70;;;;;;;-7.98;100.00;98822.19;1224993;75;2928698;-65
2024/01/20 06:25:54;;;;;;;4.45;2.85;;;;;;;-8.01;100.00;98825.47;1224896;75;2925027;-66
2024/01/20 06:28:29;;;;;;;4.95;3.85;;;;;;;-8.07;100.00;98829.44;1224263;75;2922663;-64
2024/01/20 06:31:02;;;;;;;5.85;4.10;;;;;;;-7.97;100.00;98840.47;1224995;75;2925649;-64
2024/01/20 06:33:35;;;;;;;7.90;5.35;;;;;;;-7.99;100.00;98849.84;1225525;75;2924022;-64
2024/01/20 06:36:09;;;;;;;6.15;4.70;;;;;;;-7.91;100.00;98851.69;1224939;75;2922417;-64
2024/01/20 06:38:42;;;;;;;6.65;4.30;;;;;;;-7.92;100.00;98844.81;1224838;75;2922498;-66
2024/01/20 06:41:15;;;;;;;5.70;3.55;;;;;;;-7.91;100.00;98849.03;1199608;75;4900835;-63
2024/01/20 06:43:50;;;;;;;4.25;3.20;;;;;;;-7.86;100.00;98856.03;1224666;75;2921758;-64
2024/01/20 06:46:23;;;;;;;5.85;3.45;;;;;;;-7.87;100.00;98854.47;1200732;75;4819287;-65
2024/01/20 06:48:56;;;;;;;7.25;5.00;;;;;;;-7.93;100.00;98852.00;1225376;75;2921666;-66
2024/01/20 06:51:29;;;;;;;6.30;4.30;;;;;;;-7.85;100.00;98862.91;1224492;75;2926258;-66
2024/01/20 06:54:02;;;;;;;7.70;4.60;;;;;;;-8.03;100.00;98867.53;1224771;75;2919726;-63
2024/01/20 06:56:35;;;;;;;7.35;4.80;;;;;;;-8.00;100.00;98872.22;1223998;75;2923238;-65
2024/01/20 06:59:10;;;;;;;9.60;5.95;;;;;;;-8.09;100.00;98863.53;1223334;75;2925760;-63
2024/01/20 07:01:43;;;;;;;9.85;6.05;;;;;;;-7.86;100.00;98880.75;1224377;75;2920524;-64
2024/01/20 07:04:16;;;;;;;8.70;6.05;;;;;;;-7.95;100.00;98882.66;1224003;75;2926159;-65
2024/01/20 07:06:49;;;;;;;8.40;5.55;;;;;;;-7.82;100.00;98881.63;1224356;75;2916641;-63
2024/01/20 07:09:21;;;;;;;8.15;4.90;;;;;;;-7.69;100.00;98882.50;1224104;75;2928924;-66
2024/01/20 07:11:57;;;;;;;19.20;10.85;;;;;;;-7.75;100.00;98886.44;1225332;75;2910272;-65
2024/01/20 07:14:32;;;;;;;15.75;8.25;;;;;;;-7.57;100.00;98892.44;1225261;75;2918968;-64
2024/01/20 07:17:05;;;;;;;10.85;6.60;;;;;;;-7.58;100.00;98899.59;1224970;75;2915760;-63
2024/01/20 07:19:38;;;;;;;10.20;5.65;;;;;;;-7.40;100.00;98888.84;1185988;75;6042908;-66
2024/01/20 07:22:11;;;;;;;7.60;4.80;;;;;;;-7.38;100.00;98889.31;1224416;75;2923883;-64
2024/01/20 07:24:44;;;;;;;8.20;5.50;;;;;;;-7.20;100.00;98895.25;1224626;75;2928588;-66
2024/01/20 07:27:17;;;;;;;9.50;5.95;;;;;;;-7.25;100.00;98898.09;1224702;75;2926857;-65
2024/01/20 07:29:55;;;;;;;10.20;5.95;;;;;;;-7.12;100.00;98905.81;1224955;75;2920839;-67
2024/01/20 07:32:27;;;;;;;11.50;6.40;;;;;;;-4.53;100.00;98908.88;1225317;75;2915241;-62
2024/01/20 07:35:00;;;;;;;20.95;11.00;;;;;;;-2.71;84.87;98917.38;1224695;75;2927944;-64
2024/01/20 07:37:35;;;;;;;12.90;8.45;;;;;;;-4.02;87.46;98914.31;1224515;75;2924343;-67
2024/01/20 07:40:10;;;;;;;11.60;7.85;;;;;;;-2.94;82.46;98924.59;1223794;75;2920950;-64
2024/01/20 07:42:46;;;;;;;9.85;6.10;;;;;;;-4.10;84.56;98934.00;1223796;75;2923326;-67
2024/01/20 07:45:21;;;;;;;9.45;6.25;;;;;;;-4.53;89.39;98928.38;1224308;75;2919973;-64
2024/01/20 07:47:54;;;;;;;10.85;6.55;;;;;;;-4.85;94.98;98935.56;1224044;75;2922983;-64
2024/01/20 07:50:27;;;;;;;8.15;5.50;;;;;;;-4.93;97.83;98931.13;1224988;75;2923818;-65
2024/01/20 07:53:00;;;;;;;9.60;6.40;;;;;;;-4.90;98.20;98935.81;1224335;83;2918128;-66
2024/01/20 07:55:33;;;;;;;8.55;5.30;;;;;;;-4.92;98.89;98930.81;1224806;75;2919851;-66
2024/01/20 07:58:06;;;;;;;7.15;5.50;;;;;;;-4.14;96.00;98930.44;1223662;75;2920795;-66
2024/01/20 08:00:41;;;;;;;6.50;4.65;;;;;;;-2.22;84.34;98930.06;1224596;75;2921202;-66
2024/01/20 08:03:14;;;;;;;6.80;5.20;;;;;;;-1.24;79.20;98932.25;1225723;75;2919953;-63
2024/01/20 08:05:47;;;;;;;7.35;5.25;;;;;;;-0.21;74.68;98932.56;1226050;75;2918270;-65
2024/01/20 08:08:20;;;;;;;8.55;6.00;;;;;;;0.36;70.68;98938.38;1225118;75;2920927;-64
2024/01/20 08:10:53;;;;;;;5.85;4.55;;;;;;;0.70;67.33;98931.97;1225641;75;2917436;-64
2024/01/20 08:13:26;;;;;;;6.95;5.15;;;;;;;1.33;65.28;98935.31;1225960;75;2923534;-65
2024/01/20 08:16:01;;;;;;;6.30;4.80;;;;;;;2.24;62.02;98943.09;1226268;75;2921915;-63
2024/01/20 08:18:34;;;;;;;6.20;4.35;;;;;;;1.91;62.63;98940.41;1225070;75;2921544;-62
2024/01/20 08:21:10;;;;;;;7.15;4.40;;;;;;;2.64;59.60;98941.84;1225973;75;2920390;-64
2024/01/20 08:23:42;;;;;;;6.65;4.70;;;;;;;1.29;61.85;98946.09;1224805;75;2923400;-66
2024/01/20 08:26:15;;;;;;;8.25;4.50;;;;;;;0.56;64.35;98956.97;1224378;75;2922472;-65
2024/01/20 08:28:48;;;;;;;8.75;4.95;;;;;;;0.14;65.35;98955.50;1224674;75;2921457;-67
2024/01/20 08:31:23;;;;;;;7.65;4.65;;;;;;;-0.27;67.16;98958.25;1225180;75;2920748;-67
2024/01/20 08:33:56;;;;;;;7.45;4.90;;;;;;;-0.76;69.46;98954.69;1225435;75;2916164;-66
2024/01/20 08:36:29;;;;;;;6.60;4.60;;;;;;;-1.42;70.35;98967.72;1224681;75;2923550;-65
2024/01/20 08:39:02;;;;;;;7.55;4.75;;;;;;;-2.49;75.38;98961.41;1225887;75;2926374;-64
2024/01/20 08:41:35;;;;;;;8.65;5.45;;;;;;;-2.49;78.22;98972.16;1225966;75;2916419;-65
2024/01/20 08:44:08;;;;;;;8.20;5.30;;;;;;;-2.34;77.01;98967.03;1224389;75;2968920;-65
2024/01/20 08:46:45;;;;;;;8.80;5.25;;;;;;;-1.79;76.19;98979.06;1225423;75;2929083;-67
2024/01/20 08:49:17;;;;;;;10.75;7.25;;;;;;;-2.23;77.78;98981.41;1225386;75;2951855;-65
2024/01/20 08:51:50;;;;;;;8.35;6.05;;;;;;;-1.77;74.49;98989.44;1225505;75;2914382;-67
2024/01/20 08:54:23;;;;;;;11.55;6.70;;;;;;;-2.32;76.70;98984.31;1225818;75;2918521;-65
2024/01/20 08:56:56;;;;;;;9.90;6.00;;;;;;;-1.37;75.35;98986.19;1225305;75;2916980;-66
2024/01/20 08:59:29;;;;;;;8.60;5.80;;;;;;;-0.58;74.28;98981.75;1224958;75;2918866;-65
2024/01/20 09:02:04;;;;;;;8.25;5.95;;;;;;;-0.23;72.60;98980.59;1225545;75;2923561;-64
2024/01/20 09:04:37;;;;;;;9.30;5.75;;;;;;;-0.29;70.71;98982.06;1225878;75;2915839;-64
2024/01/20 09:07:10;;;;;;;7.55;5.15;;;;;;;0.08;70.85;98983.94;1225381;75;2920906;-66
2024/01/20 09:09:43;;;;;;;7.30;4.55;;;;;;;0.99;70.18;98981.44;1225720;75;2928995;-68
2024/01/20 09:12:15;;;;;;;12.05;6.30;;;;;;;-0.43;70.75;98983.47;1225499;75;2929193;-65
2024/01/20 09:14:48;;;;;;;7.15;5.20;;;;;;;0.82;69.34;98993.69;1225583;75;2918908;-64
2024/01/20 09:17:24;;;;;;;9.40;5.60;;;;;;;1.33;68.53;98990.03;1224710;75;2922195;-68
2024/01/20 09:19:56;;;;;;;7.30;4.65;;;;;;;1.09;65.76;98988.78;1224374;75;2923322;-65
2024/01/20 09:22:29;;;;;;;6.30;4.50;;;;;;;2.70;65.29;98985.50;1224588;75;2918913;-67
2024/01/20 09:25:03;;;;;;;7.55;5.20;;;;;;;2.95;63.21;98983.47;1224088;75;2928170;-67
2024/01/20 09:27:36;;;;;;;6.50;4.30;;;;;;;4.01;60.66;98983.31;1225402;75;2925317;-66
2024/01/20 09:30:11;;;;;;;6.15;4.30;;;;;;;4.19;58.47;98983.19;1224736;75;2926244;-64
2024/01/20 09:32:46;;;;;;;8.50;4.90;;;;;;;4.37;56.20;98982.25;1224783;75;2919444;-67
2024/01/20 09:35:19;;;;;;;6.90;4.50;;;;;;;4.60;55.57;98993.28;1225077;75;2918546;-64
2024/01/20 09:37:52;;;;;;;5.50;4.00;;;;;;;5.36;53.44;98995.91;1223313;75;2998087;-65
2024/01/20 09:40:26;;;;;;;7.60;3.95;;;;;;;6.90;52.95;98988.09;1223582;75;2926827;-65
2024/01/20 09:42:59;;;;;;;11.75;3.95;;;;;;;6.21;51.17;98985.03;1223680;75;2920845;-68
2024/01/20 09:45:34;;;;;;;7.35;4.20;;;;;;;6.56;50.09;98991.06;1223952;75;2925890;-65
2024/01/20 09:48:10;;;;;;;6.70;4.35;;;;;;;6.72;51.67;98993.13;1224405;75;2908919;-66
2024/01/20 09:50:43;;;;;;;11.70;4.75;;;;;;;5.19;52.22;98994.19;1224672;75;2922988;-65
2024/01/20 09:53:18;;;;;;;21.30;13.15;;;;;;;6.42;49.85;98986.63;1224759;75;2914451;-65
2024/01/20 09:55:52;;;;;;;11.55;6.65;;;;;;;7.67;50.48;98976.03;1223494;75;2887519;-67
2024/01/20 09:58:26;;;;;;;8.85;6.15;;;;;;;6.80;48.02;98978.19;1223338;75;2921871;-67
2024/01/20 10:01:00;;;;;;;8.65;4.80;;;;;;;6.32;47.58;98980.19;1224241;75;2928274;-65
2024/01/20 10:03:38;;;;;;;8.05;4.95;;;;;;;5.80;48.58;98977.88;1223299;75;2927851;-65
2024/01/20 10:06:11;;;;;;;8.35;4.65;;;;;;;7.75;46.51;98984.03;1224877;75;2915545;-65
2024/01/20 10:08:43;;;;;;;5.80;3.75;;;;;;;7.08;46.99;98978.84;1224821;75;2925454;-66
2024/01/20 10:11:16;;;;;;;5.65;3.75;;;;;;;9.55;43.08;98978.25;1221239;75;3113338;-67
2024/01/20 10:13:50;;;;;;;4.90;3.35;;;;;;;9.09;42.05;98978.38;1225489;75;2933796;-67
2024/01/20 10:16:23;;;;;;;8.80;4.20;;;;;;;7.10;44.47;98993.56;1225556;75;2925057;-66
2024/01/20 10:18:58;;;;;;;8.90;5.75;;;;;;;9.28;43.83;98976.66;1225722;75;2921027;-69
2024/01/20 10:21:31;;;;;;;11.55;7.00;;;;;;;9.43;42.77;98978.97;1225849;75;2918505;-67
2024/01/20 10:24:04;;;;;;;9.80;6.20;;;;;;;11.26;39.45;98977.28;1209314;75;4137564;-64
2024/01/20 10:26:44;;;;;;;10.55;5.25;;;;;;;10.11;39.90;98966.72;1225123;75;2921145;-68
2024/01/20 10:29:17;;;;;;;7.30;4.35;;;;;;;11.17;41.45;98973.72;1225450;75;2914946;-65
2024/01/20 10:31:50;;;;;;;6.40;4.00;;;;;;;11.21;39.81;98974.38;1225407;75;2914982;-65
2024/01/20 10:34:29;;;;;;;6.40;4.20;;;;;;;10.18;39.89;98969.22;1225060;75;2921886;-67
2024/01/20 10:37:02;;;;;;;8.85;4.35;;;;;;;10.54;39.10;98967.31;1222986;75;2944013;-66
2024/01/20 10:39:38;;;;;;;6.95;4.30;;;;;;;10.03;39.20;98955.25;1224047;75;2935767;-66
2024/01/20 10:42:15;;;;;;;8.05;4.35;;;;;;;10.11;38.58;98957.75;1224180;75;2925422;-65
2024/01/20 10:45:04;;;;;;;6.35;3.80;;;;;;;10.07;38.08;98955.13;1224729;75;2922573;-65
2024/01/20 10:47:40;;;;;;;7.80;4.40;;;;;;;10.18;38.66;98955.56;1225340;75;2931040;-68
2024/01/20 10:50:16;;;;;;;6.10;3.70;;;;;;;10.50;38.40;98956.47;1224794;75;2913827;-65
2024/01/20 10:52:50;;;;;;;7.80;4.25;;;;;;;10.16;38.63;98947.00;1225880;75;2910609;-67
2024/01/20 10:55:25;;;;;;;9.80;4.70;;;;;;;9.86;39.63;98939.38;1225247;75;2923747;-66
2024/01/20 10:58:00;;;;;;;5.20;3.30;;;;;;;10.37;39.51;98945.56;1224856;75;2920780;-66
2024/01/20 11:00:33;;;;;;;11.25;4.40;;;;;;;8.82;43.70;98943.19;1225161;75;2918157;-67
2024/01/20 11:03:07;;;;;;;7.70;4.55;;;;;;;8.77;44.11;98942.97;1225037;75;2916611;-66
2024/01/20 11:05:47;;;;;;;7.20;3.55;;;;;;;10.39;43.38;98940.44;1225449;75;2925194;-66
2024/01/20 11:08:28;;;;;;;7.40;3.85;;;;;;;10.13;40.69;98942.44;1225612;75;2915281;-66
2024/01/20 11:11:02;;;;;;;7.60;3.80;;;;;;;11.08;40.32;98945.03;1225690;83;2916510;-64
2024/01/20 11:13:38;;;;;;;6.55;3.50;;;;;;;10.92;41.87;98948.00;1224690;75;2914776;-66
2024/01/20 11:16:21;;;;;;;11.25;5.60;;;;;;;10.71;41.25;98941.28;1225158;75;2915093;-66
2024/01/20 11:18:54;;;;;;;6.80;4.35;;;;;;;12.09;39.78;98943.97;1224812;75;2916607;-66
2024/01/20 11:21:29;;;;;;;8.95;3.75;;;;;;;11.73;39.38;98943.38;1225167;67;2913400;-65
2024/01/20 11:24:04;;;;;;;8.45;4.00;;;;;;;10.29;40.54;98938.03;1223525;75;2924002;-68
2024/01/20 11:26:38;;;;;;;13.85;4.80;;;;;;;9.69;42.82;98928.59;1224914;75;2921564;-67
2024/01/20 11:29:14;;;;;;;6.30;3.75;;;;;;;11.13;39.32;98940.94;1224688;75;2920214;-64
2024/01/20 11:31:51;;;;;;;9.60;4.60;;;;;;;10.35;40.83;98928.06;1224426;75;2919691;-65
2024/01/20 11:34:24;;;;;;;6.65;4.10;;;;;;;11.21;39.26;98923.03;1225258;75;2921091;-66
2024/01/20 11:37:03;;;;;;;7.75;3.75;;;;;;;10.94;39.77;98920.13;1225486;75;2918722;-65
2024/01/20 11:39:35;;;;;;;7.20;4.25;;;;;;;11.25;39.91;98922.91;1224663;75;2927658;-67
2024/01/20 11:42:09;;;;;;;6.55;3.65;;;;;;;11.59;38.68;98919.22;1224890;75;2920030;-64